Time;durP1;ratioP1;P1;durP2;ratioP2;P2;SDS_P1;SDS_P2;PMS_P1;PMS_P2;Temp;Humidity;BMP_temperature;BMP_pressure;BME280_temperature;BME280_humidity;BME280_pressure;Samples;Min_cycle;Max_cycle;Signal;HPM_P1;HPM_P2
2022/11/05 00:10:15;;;;;;;16.83;12.25;;;10.00;68.00;;;;;;5083772;28;20042;-75
2022/11/05 00:18:10;;;;;;;17.92;11.98;;;10.10;68.20;;;;;;5078118;28;20021;-75
2022/11/05 00:20:36;;;;;;;16.13;11.80;;;10.10;68.30;;;;;;5081474;28;20113;-75
2022/11/05 00:26:01;;;;;;;16.20;11.80;;;10.10;68.30;;;;;;5074114;28;20042;-76
2022/11/05 00:28:28;;;;;;;12.98;11.13;;;10.10;68.30;;;;;;5077593;28;20448;-76
2022/11/05 00:31:00;;;;;;;16.67;11.25;;;10.10;68.40;;;;;;5082914;28;20047;-76
2022/11/05 00:33:26;;;;;;;14.77;10.75;;;10.10;68.40;;;;;;5084412;28;20024;-76
2022/11/05 00:35:52;;;;;;;14.93;10.95;;;10.10;68.40;;;;;;5082417;28;20047;-76
2022/11/05 00:38:18;;;;;;;22.25;12.38;;;10.10;68.40;;;;;;5080635;28;20034;-76
2022/11/05 00:40:44;;;;;;;13.80;10.73;;;10.20;68.70;;;;;;5082178;28;20040;-75
2022/11/05 00:45:54;;;;;;;13.63;9.93;;;10.20;68.70;;;;;;5067532;28;20032;-75
2022/11/05 00:51:06;;;;;;;14.55;10.45;;;10.20;68.70;;;;;;5074463;28;20028;-75
2022/11/05 00:53:32;;;;;;;12.40;10.40;;;10.20;68.70;;;;;;5063379;28;20044;-76
2022/11/05 00:55:59;;;;;;;13.20;9.25;;;10.20;68.70;;;;;;5063725;28;20474;-75
2022/11/05 00:58:27;;;;;;;12.88;9.70;;;10.20;68.80;;;;;;5072285;28;20039;-76
2022/11/05 01:00:57;;;;;;;14.30;10.13;;;10.30;69.00;;;;;;5073914;28;20488;-76
2022/11/05 01:03:28;;;;;;;15.55;9.10;;;10.30;69.00;;;;;;5064174;28;20033;-76
2022/11/05 01:06:04;;;;;;;10.18;7.55;;;10.30;69.00;;;;;;5064113;28;20020;-74
2022/11/05 01:08:30;;;;;;;15.02;7.43;;;10.30;68.90;;;;;;5077532;28;20423;-76
2022/11/05 01:10:57;;;;;;;10.25;7.22;;;10.30;68.90;;;;;;5078425;28;20055;-75
2022/11/05 01:13:29;;;;;;;10.18;7.55;;;10.30;68.90;;;;;;5079177;28;20035;-75
2022/11/05 01:15:56;;;;;;;10.13;7.70;;;10.40;69.10;;;;;;5071033;28;20517;-75
2022/11/05 01:18:23;;;;;;;12.05;7.03;;;10.40;69.10;;;;;;5082961;28;20232;-75
2022/11/05 01:20:49;;;;;;;10.00;5.75;;;10.30;69.00;;;;;;5053544;28;20507;-75
2022/11/05 01:23:16;;;;;;;7.80;5.60;;;10.30;69.00;;;;;;5077003;28;20495;-75
2022/11/05 01:25:42;;;;;;;10.57;5.70;;;10.30;69.10;;;;;;5070398;28;20481;-75
2022/11/05 01:28:09;;;;;;;8.25;5.97;;;10.30;69.10;;;;;;5078051;28;20038;-74
2022/11/05 01:30:36;;;;;;;10.65;5.40;;;10.40;69.30;;;;;;5080580;28;20580;-75
2022/11/05 01:33:02;;;;;;;7.93;5.43;;;10.30;69.20;;;;;;5083884;28;20032;-75
2022/11/05 01:35:28;;;;;;;7.40;5.10;;;10.40;69.30;;;;;;5074861;28;20642;-74
2022/11/05 01:37:54;;;;;;;6.68;4.60;;;10.30;69.20;;;;;;5084310;28;20618;-75
2022/11/05 01:40:22;;;;;;;7.60;4.88;;;10.40;69.40;;;;;;5086020;28;20036;-75
2022/11/05 01:42:49;;;;;;;5.57;4.00;;;10.40;69.50;;;;;;5066604;28;21433;-76
2022/11/05 01:45:25;;;;;;;5.72;4.18;;;10.30;69.30;;;;;;5063388;28;20138;-76
2022/11/05 01:48:10;;;;;;;5.47;4.03;;;10.40;69.60;;;;;;5064555;28;20036;-75
2022/11/05 01:50:39;;;;;;;5.63;3.88;;;10.40;69.50;;;;;;5072529;28;20029;-75
2022/11/05 01:53:20;;;;;;;6.82;3.42;;;10.40;69.50;;;;;;5062048;28;20058;-75
2022/11/05 01:56:04;;;;;;;6.40;4.00;;;10.40;69.60;;;;;;5061857;28;20734;-75
2022/11/05 01:58:37;;;;;;;4.97;3.42;;;10.40;70.10;;;;;;5068881;28;20109;-75
2022/11/05 02:01:03;;;;;;;3.83;3.20;;;10.40;69.60;;;;;;5068971;28;20055;-74
2022/11/05 02:03:29;;;;;;;4.68;3.35;;;10.40;69.60;;;;;;5062105;28;20028;-76
2022/11/05 02:05:57;;;;;;;6.22;3.42;;;10.40;69.60;;;;;;5061615;28;20037;-75
2022/11/05 02:08:55;;;;;;;4.10;3.38;;;10.40;69.70;;;;;;5062820;28;20024;-74
2022/11/05 02:11:21;;;;;;;4.57;3.40;;;10.40;69.70;;;;;;5064333;28;20062;-76
2022/11/05 02:13:48;;;;;;;6.50;3.38;;;10.40;69.70;;;;;;5063259;28;20035;-76
2022/11/05 02:16:49;;;;;;;4.88;3.08;;;10.50;69.80;;;;;;5073277;28;20032;-76
2022/11/05 02:19:46;;;;;;;5.57;3.90;;;10.50;69.80;;;;;;5071751;28;20035;-76
2022/11/05 02:22:27;;;;;;;5.55;2.95;;;10.50;69.80;;;;;;5075255;28;20028;-75
2022/11/05 02:25:07;;;;;;;4.65;3.28;;;10.50;69.70;;;;;;5081508;28;20027;-75
2022/11/05 02:27:48;;;;;;;5.75;3.08;;;10.50;69.70;;;;;;5072426;28;20033;-74
2022/11/05 02:30:42;;;;;;;6.05;2.35;;;10.50;69.70;;;;;;5074715;28;20056;-75
2022/11/05 02:33:25;;;;;;;7.55;2.60;;;10.50;69.70;;;;;;5080848;28;20456;-76
2022/11/05 02:36:40;;;;;;;5.85;3.13;;;10.50;69.70;;;;;;5075565;28;20460;-76
2022/11/05 02:39:24;;;;;;;4.93;2.60;;;10.50;69.70;;;;;;5009698;28;20244;-75
2022/11/05 02:42:09;;;;;;;5.97;2.83;;;10.60;69.90;;;;;;5074471;28;20465;-76
2022/11/05 02:45:05;;;;;;;4.28;2.22;;;10.60;69.80;;;;;;5068837;28;20034;-76
2022/11/05 02:47:41;;;;;;;5.43;2.50;;;10.60;69.80;;;;;;5089258;28;20043;-74
2022/11/05 02:50:30;;;;;;;6.55;3.22;;;10.60;69.90;;;;;;5080618;28;20436;-76
2022/11/05 02:53:08;;;;;;;4.93;2.42;;;10.60;69.90;;;;;;5080028;28;20092;-75
2022/11/05 02:55:45;;;;;;;6.10;2.22;;;10.60;69.80;;;;;;5091005;28;20069;-75
2022/11/05 02:58:11;;;;;;;3.65;2.72;;;10.70;70.00;;;;;;5063693;28;20043;-75
2022/11/05 03:00:43;;;;;;;2.97;1.95;;;10.70;70.00;;;;;;5088833;28;20031;-74
2022/11/05 03:03:30;;;;;;;3.20;2.17;;;10.70;70.10;;;;;;5070981;28;20031;-76
2022/11/05 03:06:11;;;;;;;6.05;2.67;;;10.70;69.90;;;;;;5090207;28;20627;-76
2022/11/05 03:09:03;;;;;;;4.65;2.58;;;10.70;69.90;;;;;;5090454;28;20050;-76
2022/11/05 03:11:35;;;;;;;5.82;3.10;;;10.70;69.90;;;;;;5089832;28;20421;-75
2022/11/05 03:14:23;;;;;;;7.88;2.60;;;10.70;69.90;;;;;;5088572;28;20397;-75
2022/11/05 03:17:06;;;;;;;4.93;2.25;;;10.70;69.90;;;;;;5092499;28;20031;-76
2022/11/05 03:19:45;;;;;;;6.25;2.35;;;10.70;69.90;;;;;;5083042;28;20062;-76
2022/11/05 03:22:17;;;;;;;4.13;2.42;;;10.70;70.40;;;;;;5090425;28;20028;-75
2022/11/05 03:24:52;;;;;;;5.20;2.50;;;10.80;70.00;;;;;;5072594;28;20084;-75
2022/11/05 03:27:22;;;;;;;4.85;2.10;;;10.70;69.90;;;;;;5073941;28;20277;-74
2022/11/05 03:29:53;;;;;;;4.28;2.53;;;10.80;70.00;;;;;;5076381;28;20044;-75
2022/11/05 03:32:21;;;;;;;5.18;1.98;;;10.80;70.00;;;;;;5090171;28;20028;-74
2022/11/05 03:34:55;;;;;;;5.53;2.55;;;10.80;70.60;;;;;;5080900;28;20054;-75
2022/11/05 03:37:26;;;;;;;3.17;2.08;;;10.80;70.00;;;;;;5078063;28;20044;-75
2022/11/05 03:39:57;;;;;;;8.65;2.22;;;10.80;70.10;;;;;;5087005;28;20032;-75
2022/11/05 03:42:28;;;;;;;5.65;2.53;;;10.80;70.10;;;;;;5079434;28;20098;-75
2022/11/05 03:44:59;;;;;;;4.18;2.00;;;10.80;70.00;;;;;;5088935;28;20024;-75
2022/11/05 03:47:31;;;;;;;5.07;2.10;;;10.90;70.70;;;;;;5087607;28;20047;-75
2022/11/05 03:50:11;;;;;;;5.43;1.50;;;10.80;70.00;;;;;;5083087;28;20038;-75
2022/11/05 03:52:46;;;;;;;3.38;1.73;;;10.90;70.20;;;;;;5087493;28;20048;-75
2022/11/05 03:55:12;;;;;;;5.38;2.35;;;10.90;70.20;;;;;;5087264;28;20032;-75
2022/11/05 03:57:42;;;;;;;3.97;2.10;;;10.90;70.20;;;;;;5072381;28;20032;-75
2022/11/05 04:00:09;;;;;;;6.25;2.10;;;10.90;70.20;;;;;;5086343;28;20032;-75
2022/11/05 04:02:37;;;;;;;3.42;1.80;;;10.90;70.20;;;;;;5086039;28;20036;-75
2022/11/05 04:05:04;;;;;;;4.55;2.10;;;10.90;70.20;;;;;;5088621;28;20039;-75
2022/11/05 04:18:27;;;;;;;5.30;1.80;;;10.90;70.20;;;;;;5084349;28;20505;-74
2022/11/05 04:26:22;;;;;;;5.82;2.25;;;10.90;70.20;;;;;;5085619;28;20483;-75
2022/11/05 04:31:37;;;;;;;4.57;2.10;;;10.90;70.30;;;;;;5084767;28;20104;-76
2022/11/05 04:34:02;;;;;;;2.67;1.60;;;11.00;70.50;;;;;;5085282;28;20035;-75
2022/11/05 04:36:29;;;;;;;2.38;1.48;;;11.00;70.60;;;;;;5088997;28;20044;-74
2022/11/05 04:38:55;;;;;;;3.92;2.17;;;11.00;70.60;;;;;;5077614;28;20037;-74
2022/11/05 04:41:21;;;;;;;4.65;2.10;;;11.00;70.60;;;;;;5079443;28;20024;-73
2022/11/05 04:43:47;;;;;;;4.68;2.45;;;11.00;70.60;;;;;;5086522;28;20046;-74
2022/11/05 04:46:13;;;;;;;5.45;2.00;;;11.00;70.70;;;;;;5086556;28;20024;-75
2022/11/05 04:48:39;;;;;;;3.58;1.60;;;11.00;70.70;;;;;;5087850;28;20687;-76
2022/11/05 04:51:06;;;;;;;3.80;1.52;;;11.00;70.70;;;;;;5082320;28;20016;-75
2022/11/05 04:53:31;;;;;;;4.47;1.92;;;11.10;70.90;;;;;;5080082;28;20728;-75
2022/11/05 04:56:11;;;;;;;2.78;2.00;;;11.00;70.70;;;;;;5083499;28;20024;-76
2022/11/05 04:58:41;;;;;;;3.67;1.67;;;11.00;70.80;;;;;;5074147;28;20023;-75
2022/11/05 05:01:11;;;;;;;2.50;1.50;;;11.00;70.80;;;;;;5077975;28;20039;-75
2022/11/05 05:03:37;;;;;;;2.45;1.60;;;11.10;71.00;;;;;;5087564;28;20024;-76
2022/11/05 05:06:03;;;;;;;5.07;1.52;;;11.10;71.00;;;;;;5079317;28;20031;-76
2022/11/05 05:08:29;;;;;;;3.00;1.50;;;11.00;70.80;;;;;;5079331;28;20032;-77
2022/11/05 05:10:59;;;;;;;6.18;1.77;;;11.10;71.00;;;;;;5077036;28;20040;-76
2022/11/05 05:13:25;;;;;;;5.75;1.95;;;11.10;71.10;;;;;;5074095;28;20016;-77
2022/11/05 05:15:50;;;;;;;5.22;1.85;;;11.10;71.10;;;;;;5072256;28;20020;-76
2022/11/05 05:18:16;;;;;;;2.72;1.20;;;11.10;71.10;;;;;;5088042;28;20216;-77
2022/11/05 05:23:27;;;;;;;4.32;1.55;;;11.10;71.20;;;;;;5080117;28;20020;-76
2022/11/05 05:25:53;;;;;;;3.13;1.48;;;11.10;71.20;;;;;;5089132;28;20081;-74
2022/11/05 05:28:19;;;;;;;5.18;1.85;;;11.10;71.20;;;;;;5062248;28;20036;-75
2022/11/05 05:30:44;;;;;;;3.28;1.58;;;11.10;71.30;;;;;;5069874;28;20028;-75
2022/11/05 05:33:10;;;;;;;5.20;2.10;;;11.10;71.40;;;;;;5069953;28;20424;-75
2022/11/05 05:35:36;;;;;;;7.65;1.58;;;11.10;71.40;;;;;;5088687;28;20039;-75
2022/11/05 05:38:02;;;;;;;3.25;1.38;;;11.10;71.40;;;;;;5081615;28;20044;-78
2022/11/05 05:40:28;;;;;;;4.05;1.50;;;11.10;71.40;;;;;;5076566;28;20054;-78
2022/11/05 05:42:54;;;;;;;3.40;1.70;;;11.10;71.50;;;;;;5086783;28;20388;-81
2022/11/05 05:45:20;;;;;;;2.38;1.38;;;11.10;71.50;;;;;;5090759;28;20077;-81
2022/11/05 05:47:46;;;;;;;3.78;1.33;;;11.10;72.10;;;;;;5084031;28;20028;-80
2022/11/05 05:50:12;;;;;;;3.92;1.52;;;11.20;71.80;;;;;;5080218;28;20036;-81
2022/11/05 05:52:38;;;;;;;2.75;1.08;;;11.20;71.80;;;;;;5081647;28;20024;-80
2022/11/05 05:55:04;;;;;;;3.10;1.60;;;11.20;71.80;;;;;;5082226;28;20078;-80
2022/11/05 05:57:30;;;;;;;4.57;1.52;;;11.20;71.90;;;;;;5078147;28;20030;-79
2022/11/05 05:59:56;;;;;;;2.78;1.60;;;11.20;71.90;;;;;;5085324;28;20021;-79
2022/11/05 06:02:21;;;;;;;4.68;1.50;;;11.20;71.90;;;;;;5081829;28;20461;-80
2022/11/05 06:04:47;;;;;;;2.95;1.80;;;11.20;71.90;;;;;;5080387;28;20036;-80
2022/11/05 06:07:13;;;;;;;6.10;1.50;;;11.20;71.90;;;;;;5075765;28;20059;-76
2022/11/05 06:09:39;;;;;;;3.75;1.45;;;11.20;72.00;;;;;;5071482;28;20109;-75
2022/11/05 06:12:05;;;;;;;2.97;1.30;;;11.20;72.00;;;;;;5070361;28;20426;-77
2022/11/05 06:14:31;;;;;;;2.90;1.30;;;11.20;72.00;;;;;;5068675;28;20666;-76
2022/11/05 06:16:57;;;;;;;2.00;1.20;;;11.20;72.10;;;;;;5076714;28;20285;-76
2022/11/05 06:19:23;;;;;;;3.47;1.45;;;11.20;72.00;;;;;;5086270;28;20036;-76
2022/11/05 06:21:49;;;;;;;2.35;1.30;;;11.20;72.10;;;;;;5081066;28;20434;-74
2022/11/05 06:24:15;;;;;;;2.55;1.38;;;11.20;72.10;;;;;;5086571;28;20120;-75
2022/11/05 06:26:42;;;;;;;4.40;2.13;;;11.20;72.20;;;;;;5086504;28;20024;-74
2022/11/05 06:29:09;;;;;;;3.70;1.88;;;11.30;72.40;;;;;;5073942;28;20537;-76
2022/11/05 06:31:35;;;;;;;3.15;1.40;;;11.30;72.40;;;;;;5076786;28;20044;-77
2022/11/05 06:34:01;;;;;;;4.72;1.25;;;11.20;72.30;;;;;;5085308;28;20039;-75
2022/11/05 06:36:27;;;;;;;3.03;1.70;;;11.30;72.50;;;;;;5082849;28;20044;-75
2022/11/05 06:38:53;;;;;;;2.97;1.33;;;11.30;72.50;;;;;;5064381;28;20020;-83
2022/11/05 06:41:19;;;;;;;3.63;1.13;;;11.30;72.50;;;;;;5082614;28;20012;-76
2022/11/05 06:43:45;;;;;;;2.83;1.50;;;11.30;72.50;;;;;;5070075;28;20040;-77
2022/11/05 06:46:11;;;;;;;5.85;1.88;;;11.30;72.50;;;;;;5064680;28;20040;-75
2022/11/05 06:48:37;;;;;;;2.00;1.05;;;11.40;72.80;;;;;;5082952;28;20036;-77
2022/11/05 06:51:05;;;;;;;3.45;1.35;;;11.40;72.70;;;;;;5085258;28;20027;-77
2022/11/05 06:53:31;;;;;;;3.08;1.10;;;11.40;72.70;;;;;;5077091;28;20037;-76
2022/11/05 06:56:01;;;;;;;3.40;1.30;;;11.30;72.60;;;;;;5082078;28;20454;-74
2022/11/05 06:58:28;;;;;;;3.67;1.05;;;11.40;72.80;;;;;;5080111;28;20673;-74
2022/11/05 07:00:58;;;;;;;2.90;1.40;;;11.40;72.90;;;;;;5083838;28;20074;-76
2022/11/05 07:03:24;;;;;;;2.85;1.20;;;11.40;73.00;;;;;;5085967;28;20478;-76
2022/11/05 07:05:50;;;;;;;4.22;1.42;;;11.40;73.10;;;;;;5075457;28;20051;-76
2022/11/05 07:08:16;;;;;;;5.22;2.00;;;11.50;73.60;;;;;;5085247;28;20039;-74
2022/11/05 07:10:42;;;;;;;5.85;1.70;;;11.50;73.80;;;;;;5084544;28;20049;-74
2022/11/05 07:13:08;;;;;;;6.28;1.40;;;11.50;73.90;;;;;;5076877;28;20078;-74
2022/11/05 07:15:34;;;;;;;9.73;1.85;;;11.60;74.30;;;;;;5081370;28;20402;-82
2022/11/05 07:18:00;;;;;;;7.75;1.80;;;11.70;75.20;;;;;;5067571;28;20024;-89
2022/11/05 07:20:26;;;;;;;5.93;1.52;;;11.80;75.30;;;;;;5074697;28;20200;-75
2022/11/05 07:23:02;;;;;;;5.78;1.30;;;12.00;75.90;;;;;;5084552;28;20502;-77
2022/11/05 07:25:30;;;;;;;4.57;1.17;;;12.10;76.10;;;;;;5077678;28;20035;-78
2022/11/05 07:27:56;;;;;;;3.58;1.55;;;12.20;75.90;;;;;;5080941;28;20395;-76
2022/11/05 07:30:21;;;;;;;8.18;1.48;;;12.30;76.00;;;;;;5085136;28;20059;-77
2022/11/05 07:32:47;;;;;;;5.25;1.63;;;12.30;75.90;;;;;;5084891;28;20489;-75
2022/11/05 07:35:13;;;;;;;4.78;1.20;;;12.30;75.90;;;;;;5082006;28;20040;-78
2022/11/05 07:37:47;;;;;;;4.60;1.45;;;12.30;75.90;;;;;;5082962;28;20044;-75
2022/11/05 07:40:14;;;;;;;5.03;1.35;;;12.40;76.20;;;;;;5071648;28;20040;-75
2022/11/05 07:42:42;;;;;;;4.05;1.30;;;12.30;75.90;;;;;;5076554;28;20036;-74
2022/11/05 07:45:08;;;;;;;3.78;1.88;;;12.40;76.10;;;;;;5063802;28;20028;-76
2022/11/05 07:47:55;;;;;;;5.05;1.55;;;12.30;76.40;;;;;;5069201;28;20036;-79
2022/11/05 07:50:22;;;;;;;2.58;1.17;;;12.40;76.10;;;;;;5073643;28;20411;-84
2022/11/05 07:52:49;;;;;;;5.53;1.60;;;12.40;76.00;;;;;;5064573;28;20655;-77
2022/11/05 07:55:17;;;;;;;3.90;1.58;;;12.40;76.00;;;;;;5071799;28;20027;-78
2022/11/05 07:57:47;;;;;;;3.42;1.40;;;12.40;76.20;;;;;;5067053;28;20040;-78
2022/11/05 08:00:16;;;;;;;6.68;1.52;;;12.50;76.50;;;;;;5065317;28;20612;-77
2022/11/05 08:02:43;;;;;;;6.53;1.30;;;12.50;76.50;;;;;;5063565;28;20029;-78
2022/11/05 08:05:09;;;;;;;5.70;1.58;;;12.50;76.50;;;;;;5068923;28;20039;-77
2022/11/05 08:07:35;;;;;;;4.20;1.80;;;12.60;76.70;;;;;;5070370;28;20928;-75
2022/11/05 08:10:04;;;;;;;8.77;2.67;;;12.60;76.60;;;;;;5075692;28;20101;-83
2022/11/05 08:12:31;;;;;;;3.22;1.05;;;12.60;76.60;;;;;;5071801;28;20036;-85
2022/11/05 08:14:57;;;;;;;1.95;1.25;;;12.60;76.60;;;;;;5066051;28;20034;-84
2022/11/05 08:17:23;;;;;;;2.88;1.20;;;12.60;76.60;;;;;;5064181;28;20028;-88
2022/11/05 08:19:49;;;;;;;5.28;1.20;;;12.60;76.60;;;;;;5068088;28;20032;-87
2022/11/05 08:22:14;;;;;;;5.07;1.20;;;12.60;76.60;;;;;;5073985;28;20036;-96
2022/11/05 08:24:40;;;;;;;7.50;2.25;;;12.70;76.70;;;;;;5079189;28;20059;-89
2022/11/05 08:27:06;;;;;;;6.53;1.40;;;12.70;76.60;;;;;;5064780;28;20090;-89
2022/11/05 08:29:32;;;;;;;3.50;1.20;;;12.70;76.40;;;;;;5068630;28;20040;-89
2022/11/05 08:31:58;;;;;;;5.97;1.23;;;12.80;76.50;;;;;;5079071;28;20467;-84
2022/11/05 08:34:24;;;;;;;4.05;1.08;;;12.80;76.40;;;;;;5083239;28;20383;-84
2022/11/05 08:36:50;;;;;;;4.97;1.30;;;12.90;76.50;;;;;;5062826;28;20036;-85
2022/11/05 08:39:17;;;;;;;4.15;1.38;;;12.90;76.40;;;;;;5063009;28;20032;-86
2022/11/05 08:41:44;;;;;;;4.25;1.05;;;12.90;76.40;;;;;;5051696;28;20039;-92
2022/11/05 08:44:10;;;;;;;3.42;1.02;;;12.90;76.20;;;;;;5044922;28;20032;-83
2022/11/05 08:46:36;;;;;;;4.65;2.00;;;12.90;76.10;;;;;;5062727;28;20387;-82
2022/11/05 08:49:03;;;;;;;4.82;1.38;;;13.00;76.20;;;;;;5068832;28;20419;-83
2022/11/05 08:51:29;;;;;;;3.80;0.90;;;13.00;76.10;;;;;;5064405;28;20082;-87
2022/11/05 08:53:55;;;;;;;4.95;1.42;;;13.00;76.10;;;;;;5063997;28;20165;-82
2022/11/05 08:56:24;;;;;;;6.38;1.17;;;13.00;76.00;;;;;;5073955;28;20193;-87
2022/11/05 08:58:50;;;;;;;5.60;2.13;;;13.00;75.90;;;;;;5066855;28;20093;-85
2022/11/05 09:01:16;;;;;;;3.83;1.17;;;13.00;75.90;;;;;;5064198;28;20495;-80
2022/11/05 09:03:42;;;;;;;5.30;1.40;;;13.10;76.00;;;;;;5063373;28;20042;-94
2022/11/05 09:06:08;;;;;;;2.42;0.77;;;13.10;76.00;;;;;;5072652;28;20722;-89
2022/11/05 09:08:34;;;;;;;1.95;1.10;;;13.20;76.10;;;;;;5080924;28;20302;-90
2022/11/05 09:11:00;;;;;;;4.93;1.20;;;13.20;76.00;;;;;;5082568;28;20040;-90
2022/11/05 09:13:26;;;;;;;2.22;0.82;;;13.20;75.80;;;;;;5080250;28;20057;-89
2022/11/05 09:15:52;;;;;;;5.10;1.10;;;13.30;75.90;;;;;;5079023;28;20297;-88
2022/11/05 09:18:19;;;;;;;4.32;1.80;;;13.30;75.80;;;;;;5067760;28;20032;-89
2022/11/05 09:20:45;;;;;;;2.45;0.98;;;13.30;75.70;;;;;;5065725;28;20047;-91
2022/11/05 09:23:15;;;;;;;3.42;0.98;;;13.30;75.60;;;;;;5065825;28;20021;-87
2022/11/05 09:25:43;;;;;;;2.22;0.88;;;13.40;75.70;;;;;;5071836;28;20438;-88
2022/11/05 09:28:20;;;;;;;5.80;1.52;;;13.40;75.60;;;;;;5068833;28;20032;-76
2022/11/05 09:30:48;;;;;;;4.13;1.27;;;13.40;75.60;;;;;;5070442;28;20036;-76
2022/11/05 09:33:16;;;;;;;4.03;1.13;;;13.50;75.70;;;;;;5081064;28;20028;-76
2022/11/05 09:35:42;;;;;;;4.88;1.60;;;13.40;75.40;;;;;;5077956;28;20406;-74
2022/11/05 09:38:09;;;;;;;6.60;1.05;;;13.50;75.50;;;;;;5073275;28;20330;-74
2022/11/05 09:40:53;;;;;;;2.88;1.00;;;13.50;75.40;;;;;;5081832;28;20422;-74
2022/11/05 09:43:22;;;;;;;3.10;0.80;;;13.50;75.40;;;;;;5069534;28;20044;-74
2022/11/05 09:45:51;;;;;;;5.32;1.65;;;13.50;75.30;;;;;;5062702;28;20040;-75
2022/11/05 09:48:22;;;;;;;3.75;1.20;;;13.50;75.30;;;;;;5072628;28;20270;-74
2022/11/05 09:50:50;;;;;;;3.30;1.80;;;13.60;75.40;;;;;;5064116;28;20036;-76
2022/11/05 09:53:19;;;;;;;5.13;1.20;;;13.60;75.40;;;;;;5062638;28;20025;-75
2022/11/05 09:55:52;;;;;;;4.65;0.90;;;13.70;75.50;;;;;;5072673;28;20028;-74
2022/11/05 09:58:30;;;;;;;3.45;1.90;;;13.70;75.90;;;;;;5076257;28;20042;-75
2022/11/05 10:00:57;;;;;;;5.50;1.15;;;13.80;75.50;;;;;;5054579;28;20511;-75
2022/11/05 10:03:25;;;;;;;3.97;1.00;;;13.80;75.40;;;;;;5070195;28;20024;-75
2022/11/05 10:05:53;;;;;;;4.15;0.90;;;13.80;75.30;;;;;;5067291;28;20041;-76
2022/11/05 10:08:30;;;;;;;4.03;1.23;;;13.80;75.30;;;;;;5069979;28;20028;-76
2022/11/05 10:11:20;;;;;;;2.78;1.00;;;13.80;75.30;;;;;;5065515;28;20033;-76
2022/11/05 10:14:01;;;;;;;0.98;0.55;;;13.80;75.30;;;;;;5064458;28;20062;-75
2022/11/05 10:16:38;;;;;;;4.88;0.70;;;13.90;75.40;;;;;;5075236;28;20065;-75
2022/11/05 10:19:27;;;;;;;3.70;1.63;;;13.80;75.30;;;;;;5074911;28;20372;-75
2022/11/05 10:22:01;;;;;;;4.10;1.63;;;13.90;75.40;;;;;;5080884;28;20036;-76
2022/11/05 10:24:27;;;;;;;2.53;0.90;;;13.90;75.30;;;;;;5082334;28;20047;-76
2022/11/05 10:26:54;;;;;;;4.30;1.08;;;14.00;75.30;;;;;;5071925;28;20024;-75
2022/11/05 10:29:31;;;;;;;2.35;1.00;;;14.00;75.30;;;;;;5076975;28;20042;-76
2022/11/05 10:32:00;;;;;;;1.52;0.88;;;14.10;75.30;;;;;;5059673;28;20036;-76
2022/11/05 10:34:30;;;;;;;4.97;1.00;;;14.10;75.20;;;;;;5073311;28;20032;-75
2022/11/05 10:36:56;;;;;;;4.63;1.50;;;14.20;75.20;;;;;;5077426;28;20052;-75
2022/11/05 10:39:26;;;;;;;3.83;1.45;;;14.20;75.10;;;;;;5079283;28;20073;-75
2022/11/05 10:42:25;;;;;;;2.08;0.93;;;14.30;75.20;;;;;;5067768;28;20035;-75
2022/11/05 10:45:13;;;;;;;2.53;0.70;;;14.30;75.10;;;;;;5062068;28;20593;-75
2022/11/05 10:47:42;;;;;;;5.65;1.60;;;14.40;75.10;;;;;;5064884;28;20028;-76
2022/11/05 10:50:16;;;;;;;6.25;2.95;;;14.40;74.90;;;;;;5046656;28;20184;-75
2022/11/05 10:52:51;;;;;;;4.00;1.05;;;14.50;75.10;;;;;;5063580;28;20260;-75
2022/11/05 10:55:25;;;;;;;3.47;0.80;;;14.50;74.90;;;;;;5062852;28;20062;-75
2022/11/05 10:57:51;;;;;;;1.83;0.80;;;14.60;75.10;;;;;;5075540;28;20457;-74
2022/11/05 11:00:24;;;;;;;5.43;0.90;;;14.50;74.90;;;;;;5074471;28;20031;-75
2022/11/05 11:03:31;;;;;;;2.08;0.60;;;14.50;74.90;;;;;;5064490;28;20537;-74
2022/11/05 11:06:13;;;;;;;5.60;1.13;;;14.50;74.90;;;;;;5075184;28;20030;-74
2022/11/05 11:08:44;;;;;;;4.07;1.20;;;14.50;75.00;;;;;;5081319;28;20065;-76
2022/11/05 11:11:23;;;;;;;4.65;0.90;;;14.50;75.00;;;;;;5064593;28;20031;-77
2022/11/05 11:14:13;;;;;;;4.22;1.10;;;14.50;75.00;;;;;;5076875;28;20058;-83
2022/11/05 11:16:41;;;;;;;3.90;1.58;;;14.40;74.90;;;;;;5074148;28;20042;-81
2022/11/05 11:19:34;;;;;;;2.42;0.85;;;14.50;75.10;;;;;;5079042;28;20098;-82
2022/11/05 11:22:03;;;;;;;4.07;0.90;;;14.50;75.10;;;;;;5078526;28;20614;-79
2022/11/05 11:24:50;;;;;;;3.92;1.13;;;14.50;75.10;;;;;;5075636;28;20304;-82
2022/11/05 11:27:28;;;;;;;3.53;0.75;;;14.50;75.10;;;;;;5075969;28;20410;-81
2022/11/05 11:29:58;;;;;;;4.18;0.80;;;14.50;75.10;;;;;;5074637;28;20035;-80
2022/11/05 11:32:30;;;;;;;5.57;1.38;;;14.50;75.00;;;;;;5075322;28;20024;-80
2022/11/05 11:34:57;;;;;;;3.85;1.23;;;14.60;75.10;;;;;;5077242;28;20028;-86
2022/11/05 11:37:32;;;;;;;5.30;1.70;;;14.50;75.00;;;;;;5060081;28;20455;-81
2022/11/05 11:40:20;;;;;;;2.40;0.60;;;14.60;75.10;;;;;;5079896;28;20026;-80
2022/11/05 11:42:50;;;;;;;3.92;0.60;;;14.60;75.00;;;;;;5076445;28;20037;-82
2022/11/05 11:45:21;;;;;;;2.42;1.13;;;14.70;75.10;;;;;;5082470;28;20032;-84
2022/11/05 11:47:49;;;;;;;4.72;2.85;;;14.70;75.00;;;;;;5081513;28;20027;-83
2022/11/05 11:50:35;;;;;;;4.53;0.65;;;14.70;74.90;;;;;;5081365;28;20452;-84
2022/11/05 11:53:24;;;;;;;2.40;1.05;;;14.80;75.00;;;;;;5077598;28;20158;-78
2022/11/05 11:56:01;;;;;;;3.08;1.20;;;14.80;75.10;;;;;;5078005;28;20032;-76
2022/11/05 11:58:39;;;;;;;4.47;1.30;;;14.90;75.20;;;;;;5082663;28;20505;-77
2022/11/05 12:01:16;;;;;;;5.78;0.80;;;15.00;75.50;;;;;;5079422;28;20052;-74
2022/11/05 12:04:01;;;;;;;3.42;0.80;;;15.10;75.60;;;;;;5087189;28;20028;-74
2022/11/05 12:06:39;;;;;;;3.63;0.90;;;15.20;75.70;;;;;;5084111;28;20032;-74
2022/11/05 12:09:40;;;;;;;5.53;1.15;;;15.30;75.90;;;;;;5083823;28;20041;-74
2022/11/05 12:12:12;;;;;;;2.47;0.90;;;15.40;76.10;;;;;;5084437;28;20043;-74
2022/11/05 12:15:32;;;;;;;3.05;0.77;;;15.40;76.00;;;;;;5084972;28;20047;-74
2022/11/05 12:18:04;;;;;;;2.72;0.98;;;15.60;76.30;;;;;;5026907;28;20036;-74
2022/11/05 12:20:46;;;;;;;4.18;1.10;;;15.70;76.20;;;;;;5077480;28;20047;-75
2022/11/05 12:23:12;;;;;;;2.63;1.33;;;15.80;76.30;;;;;;5066047;28;20037;-74
2022/11/05 12:25:47;;;;;;;4.70;2.63;;;15.80;76.20;;;;;;5078240;28;20048;-74
2022/11/05 12:28:38;;;;;;;3.70;2.17;;;15.80;76.10;;;;;;5072675;28;20055;-74
2022/11/05 12:31:11;;;;;;;4.63;2.10;;;15.90;76.30;;;;;;5053630;28;20043;-74
2022/11/05 12:34:05;;;;;;;4.35;1.95;;;15.90;76.30;;;;;;5078863;28;20094;-75
2022/11/05 12:36:40;;;;;;;3.92;2.33;;;15.90;76.50;;;;;;5064882;28;20044;-75
2022/11/05 12:39:31;;;;;;;10.20;4.07;;;15.90;76.40;;;;;;5080528;28;20027;-74
2022/11/05 12:41:59;;;;;;;4.68;2.47;;;15.90;76.60;;;;;;5076367;28;20033;-76
2022/11/05 12:44:43;;;;;;;8.30;3.90;;;16.00;76.80;;;;;;5062264;28;20031;-77
2022/11/05 12:47:43;;;;;;;10.15;3.47;;;16.00;77.10;;;;;;5079339;28;20524;-77
2022/11/05 12:50:30;;;;;;;10.43;3.35;;;16.10;77.60;;;;;;5076704;28;20036;-95
2022/11/05 12:53:20;;;;;;;5.03;2.30;;;16.20;77.70;;;;;;5053246;28;20648;-91
2022/11/05 12:55:48;;;;;;;14.27;3.35;;;16.20;77.70;;;;;;5053992;28;20042;-75
2022/11/05 12:58:17;;;;;;;7.82;3.05;;;16.30;77.70;;;;;;5065747;28;20024;-74
2022/11/05 13:00:50;;;;;;;5.05;2.75;;;16.40;77.80;;;;;;5063742;28;20032;-76
2022/11/05 13:03:29;;;;;;;;;;;16.40;77.70;;;;;;5076285;28;20031;-73
2022/11/05 13:06:12;;;;;;;5.13;2.03;;;16.40;77.60;;;;;;5077678;28;20255;-76
2022/11/05 13:08:58;;;;;;;4.90;2.40;;;16.50;77.70;;;;;;5075121;28;20032;-75
2022/11/05 13:11:47;;;;;;;3.15;2.75;;;16.50;77.70;;;;;;5074365;28;20024;-76
2022/11/05 13:14:20;;;;;;;6.68;2.47;;;16.50;77.70;;;;;;5069598;28;20036;-85
2022/11/05 13:16:54;;;;;;;5.95;2.58;;;16.50;77.60;;;;;;5077726;28;20020;-83
2022/11/05 13:19:28;;;;;;;6.93;2.65;;;16.60;77.80;;;;;;5074986;28;20032;-85
2022/11/05 13:22:10;;;;;;;7.05;2.47;;;16.60;77.80;;;;;;5057219;28;20073;-86
2022/11/05 13:24:50;;;;;;;3.95;2.45;;;16.60;77.80;;;;;;5072761;28;20030;-92
2022/11/05 13:27:19;;;;;;;9.57;2.67;;;16.60;77.70;;;;;;5072966;28;20039;-84
2022/11/05 13:29:51;;;;;;;3.38;1.70;;;16.60;77.70;;;;;;5080054;28;20060;-85
2022/11/05 13:32:39;;;;;;;3.63;1.77;;;16.70;78.00;;;;;;5085639;28;20024;-89
2022/11/05 13:35:14;;;;;;;4.55;1.98;;;16.70;78.00;;;;;;5059545;28;20040;-95
2022/11/05 13:40:57;;;;;;;3.42;1.63;;;16.80;78.20;;;;;;5080698;28;20039;-90
2022/11/05 13:43:53;;;;;;;3.47;1.80;;;16.70;78.60;;;;;;5072534;28;20043;-92
2022/11/05 13:46:47;;;;;;;6.47;1.80;;;16.70;78.10;;;;;;5072757;28;20028;-95
2022/11/05 13:49:15;;;;;;;1.83;1.35;;;16.70;78.20;;;;;;5078507;28;20036;-92
2022/11/05 13:51:48;;;;;;;3.00;1.58;;;16.70;78.20;;;;;;5073515;28;20384;-95
2022/11/05 13:54:14;;;;;;;;;;;16.70;78.20;;;;;;5071562;28;20047;-82
2022/11/05 13:56:58;;;;;;;3.53;1.13;;;16.70;78.20;;;;;;5071753;28;19908;-81
2022/11/05 13:59:33;;;;;;;2.08;1.15;;;16.70;78.10;;;;;;5077396;28;20310;-81